La Constitución, Mexico

7:41 PM CST on February 05, 2016 (GMT -0600)
Lic Adolfo Lopez Mateos International | | Change Station
CLOSE
Current Station
Airport
Location: Toluca Jose Maria,
Elevation: 8451 ft
Nearby Weather Stations

Elev 8451 ft 19.34 °N, 99.57 °W | Updated 58 minutes ago

Partly Cloudy
Partly Cloudy
61 °F
Feels Like 61 °F
N
9
Wind Variable Wind from SSE

Today
High -- | Low -- °F
--% Chance of Precip.
Yesterday
High -- | Low -- °F
Precip. -- in
Pressure 30.33 in
Visibility 5.0 miles
Clouds Few 1500 ft
Dew Point 43 °F
Humidity 52%
Rainfall 0.00 in
Snow Depth Not available.
7:11 AM 6:33 PM
Waning Crescent, 8% visible
METAR MMTO 060043Z 15008KT 5SM FEW015 16/06 A3033 RMK 8/500 HZY FU
Pressure 30.33 in
Visibility 5.0 miles
Clouds Few 1500 ft
Dew Point 43 °F
Humidity 52%
Rainfall 0.00 in
Snow Depth Not available.
7:11 AM 6:33 PM
Waning Crescent, 8% visible
METAR MMTO 060043Z 15008KT 5SM FEW015 16/06 A3033 RMK 8/500 HZY FU

10-Day Weather Forecast

No radar image for this location.
×

Almanac

Astronomy

Feb. 05, 2016 Rise Set
Actual Time
Civil Twilight
Nautical Twilight
Astronomical Twilight
Moon
Length of Visible Light
Length of Day
Tomorrow will be .
, % of the Moon is Illuminated

Today's Extremes

Country Highs Country Lows

Community

WunderPhotos

Upload Photos

1,890,906 photos uploaded!

WunderBlog® & News

Nearby

Air Quality

  Air Quality AQ Index Pollutant
Not available.

Snow Depth

Station Depth Elevation

Earthquake Activity

City Distance Mag. Time & Date
Minimum magnitude displayed is 2.5.

Coastal Water Temperatures

Place Temperature

Stations

Nearby Weather Stations

Station Location Temp. Windchill Dew Point Humidity Wind Precip. Elev Updated Type